sensor_id;sensor_type;location;lat;lon;timestamp;temperature;humidity
12254;DHT22;6189;52.526;13.390;2024-03-02T00:02:09;11.10;99.90
12254;DHT22;6189;52.526;13.390;2024-03-02T00:04:56;11.10;99.90
12254;DHT22;6189;52.526;13.390;2024-03-02T00:07:44;11.10;99.90
12254;DHT22;6189;52.526;13.390;2024-03-02T00:10:33;11.10;99.90
12254;DHT22;6189;52.526;13.390;2024-03-02T00:13:24;11.10;99.90
12254;DHT22;6189;52.526;13.390;2024-03-02T00:16:11;11.20;99.90
12254;DHT22;6189;52.526;13.390;2024-03-02T00:19:01;11.10;99.90
12254;DHT22;6189;52.526;13.390;2024-03-02T00:21:48;11.20;99.90
12254;DHT22;6189;52.526;13.390;2024-03-02T00:24:35;11.20;99.90
12254;DHT22;6189;52.526;13.390;2024-03-02T00:27:22;11.20;99.90
12254;DHT22;6189;52.526;13.390;2024-03-02T00:30:16;11.20;99.90
12254;DHT22;6189;52.526;13.390;2024-03-02T00:33:13;11.20;99.90
12254;DHT22;6189;52.526;13.390;2024-03-02T00:36:00;11.20;99.90
12254;DHT22;6189;52.526;13.390;2024-03-02T00:38:49;11.40;99.90
12254;DHT22;6189;52.526;13.390;2024-03-02T00:41:37;11.20;99.90
12254;DHT22;6189;52.526;13.390;2024-03-02T00:44:24;11.20;99.90
12254;DHT22;6189;52.526;13.390;2024-03-02T00:47:13;11.20;99.90
12254;DHT22;6189;52.526;13.390;2024-03-02T00:50:01;11.20;99.90
12254;DHT22;6189;52.526;13.390;2024-03-02T00:52:49;11.20;99.90
12254;DHT22;6189;52.526;13.390;2024-03-02T00:55:36;11.20;99.90
12254;DHT22;6189;52.526;13.390;2024-03-02T00:58:23;11.20;99.90
12254;DHT22;6189;52.526;13.390;2024-03-02T01:01:11;11.20;99.90
12254;DHT22;6189;52.526;13.390;2024-03-02T01:03:59;11.20;99.90
12254;DHT22;6189;52.526;13.390;2024-03-02T01:06:46;11.20;99.90
12254;DHT22;6189;52.526;13.390;2024-03-02T01:09:34;11.20;99.90
12254;DHT22;6189;52.526;13.390;2024-03-02T01:12:21;11.20;99.90
12254;DHT22;6189;52.526;13.390;2024-03-02T01:15:08;11.20;99.90
12254;DHT22;6189;52.526;13.390;2024-03-02T01:17:56;11.20;99.90
12254;DHT22;6189;52.526;13.390;2024-03-02T01:20:44;11.30;99.90
12254;DHT22;6189;52.526;13.390;2024-03-02T01:23:31;11.30;99.90
12254;DHT22;6189;52.526;13.390;2024-03-02T01:26:18;11.20;99.90
12254;DHT22;6189;52.526;13.390;2024-03-02T01:29:06;11.30;99.90
12254;DHT22;6189;52.526;13.390;2024-03-02T01:31:53;11.30;99.90
12254;DHT22;6189;52.526;13.390;2024-03-02T01:34:40;11.30;99.90
12254;DHT22;6189;52.526;13.390;2024-03-02T01:37:29;11.30;99.90
12254;DHT22;6189;52.526;13.390;2024-03-02T01:40:16;11.30;99.90
12254;DHT22;6189;52.526;13.390;2024-03-02T01:43:03;11.20;99.90
12254;DHT22;6189;52.526;13.390;2024-03-02T01:45:50;11.30;99.90
12254;DHT22;6189;52.526;13.390;2024-03-02T01:48:38;11.30;99.90
12254;DHT22;6189;52.526;13.390;2024-03-02T01:51:25;11.40;99.90
12254;DHT22;6189;52.526;13.390;2024-03-02T01:54:14;11.60;99.90
12254;DHT22;6189;52.526;13.390;2024-03-02T01:57:01;11.30;99.90
12254;DHT22;6189;52.526;13.390;2024-03-02T01:59:48;11.30;99.90
12254;DHT22;6189;52.526;13.390;2024-03-02T02:02:36;11.30;99.90
12254;DHT22;6189;52.526;13.390;2024-03-02T02:05:23;11.30;99.90
12254;DHT22;6189;52.526;13.390;2024-03-02T02:08:10;11.30;99.90
12254;DHT22;6189;52.526;13.390;2024-03-02T02:10:59;11.30;99.90
12254;DHT22;6189;52.526;13.390;2024-03-02T02:13:47;11.30;99.90
12254;DHT22;6189;52.526;13.390;2024-03-02T02:16:34;11.30;99.90
12254;DHT22;6189;52.526;13.390;2024-03-02T02:19:21;11.30;99.90
12254;DHT22;6189;52.526;13.390;2024-03-02T02:22:09;11.30;99.90
12254;DHT22;6189;52.526;13.390;2024-03-02T02:24:57;11.30;99.90
12254;DHT22;6189;52.526;13.390;2024-03-02T02:27:44;11.30;99.90
12254;DHT22;6189;52.526;13.390;2024-03-02T02:30:31;11.30;99.90
12254;DHT22;6189;52.526;13.390;2024-03-02T02:33:19;11.30;99.90
12254;DHT22;6189;52.526;13.390;2024-03-02T02:36:06;11.30;99.90
12254;DHT22;6189;52.526;13.390;2024-03-02T02:38:55;11.30;99.90
12254;DHT22;6189;52.526;13.390;2024-03-02T02:41:42;11.40;99.90
12254;DHT22;6189;52.526;13.390;2024-03-02T02:44:29;11.30;99.90
12254;DHT22;6189;52.526;13.390;2024-03-02T02:47:16;11.30;99.90
12254;DHT22;6189;52.526;13.390;2024-03-02T02:50:06;11.30;99.90
12254;DHT22;6189;52.526;13.390;2024-03-02T02:52:55;11.40;99.90
12254;DHT22;6189;52.526;13.390;2024-03-02T02:55:44;11.50;99.90
12254;DHT22;6189;52.526;13.390;2024-03-02T02:58:31;11.40;99.90
12254;DHT22;6189;52.526;13.390;2024-03-02T03:01:18;11.40;99.90
12254;DHT22;6189;52.526;13.390;2024-03-02T03:04:06;11.30;99.90
12254;DHT22;6189;52.526;13.390;2024-03-02T03:06:54;11.30;99.90
12254;DHT22;6189;52.526;13.390;2024-03-02T03:09:41;11.30;99.90
12254;DHT22;6189;52.526;13.390;2024-03-02T03:12:30;11.30;99.90
12254;DHT22;6189;52.526;13.390;2024-03-02T03:15:18;11.30;99.90
12254;DHT22;6189;52.526;13.390;2024-03-02T03:18:05;11.20;99.90
12254;DHT22;6189;52.526;13.390;2024-03-02T03:20:53;11.30;99.90
12254;DHT22;6189;52.526;13.390;2024-03-02T03:23:40;11.20;99.90
12254;DHT22;6189;52.526;13.390;2024-03-02T03:26:27;11.10;99.90
12254;DHT22;6189;52.526;13.390;2024-03-02T03:29:16;11.10;99.90
12254;DHT22;6189;52.526;13.390;2024-03-02T03:32:03;11.20;99.90
12254;DHT22;6189;52.526;13.390;2024-03-02T03:34:52;11.20;99.90
12254;DHT22;6189;52.526;13.390;2024-03-02T03:37:39;11.20;99.90
12254;DHT22;6189;52.526;13.390;2024-03-02T03:40:27;11.20;99.90
12254;DHT22;6189;52.526;13.390;2024-03-02T03:43:14;11.20;99.90
12254;DHT22;6189;52.526;13.390;2024-03-02T03:46:03;11.30;99.90
12254;DHT22;6189;52.526;13.390;2024-03-02T03:48:50;11.30;99.90
12254;DHT22;6189;52.526;13.390;2024-03-02T03:51:37;11.30;99.90
12254;DHT22;6189;52.526;13.390;2024-03-02T03:54:24;11.30;99.90
12254;DHT22;6189;52.526;13.390;2024-03-02T03:57:12;11.30;99.90
12254;DHT22;6189;52.526;13.390;2024-03-02T03:59:59;11.20;99.90
12254;DHT22;6189;52.526;13.390;2024-03-02T04:02:48;11.20;99.90
12254;DHT22;6189;52.526;13.390;2024-03-02T04:05:35;11.30;99.90
12254;DHT22;6189;52.526;13.390;2024-03-02T04:08:22;11.20;99.90
12254;DHT22;6189;52.526;13.390;2024-03-02T04:11:09;11.20;99.90
12254;DHT22;6189;52.526;13.390;2024-03-02T04:13:56;11.10;99.90
12254;DHT22;6189;52.526;13.390;2024-03-02T04:16:44;11.00;99.90
12254;DHT22;6189;52.526;13.390;2024-03-02T04:19:32;11.10;99.90
12254;DHT22;6189;52.526;13.390;2024-03-02T04:22:20;11.10;99.90
12254;DHT22;6189;52.526;13.390;2024-03-02T04:25:07;11.10;99.90
12254;DHT22;6189;52.526;13.390;2024-03-02T04:27:55;11.20;99.90
12254;DHT22;6189;52.526;13.390;2024-03-02T04:30:42;11.10;99.90
12254;DHT22;6189;52.526;13.390;2024-03-02T04:33:30;11.00;99.90
12254;DHT22;6189;52.526;13.390;2024-03-02T04:36:18;11.20;99.90
12254;DHT22;6189;52.526;13.390;2024-03-02T04:39:06;11.30;99.90
12254;DHT22;6189;52.526;13.390;2024-03-02T04:41:55;11.30;99.90
12254;DHT22;6189;52.526;13.390;2024-03-02T04:44:43;11.30;99.90
12254;DHT22;6189;52.526;13.390;2024-03-02T04:47:30;11.30;99.90
12254;DHT22;6189;52.526;13.390;2024-03-02T04:50:17;11.70;99.90
12254;DHT22;6189;52.526;13.390;2024-03-02T04:53:06;11.30;99.90
12254;DHT22;6189;52.526;13.390;2024-03-02T04:55:53;11.30;99.90
12254;DHT22;6189;52.526;13.390;2024-03-02T04:58:58;11.40;99.90
12254;DHT22;6189;52.526;13.390;2024-03-02T05:01:45;11.40;99.90
12254;DHT22;6189;52.526;13.390;2024-03-02T05:04:33;11.40;99.90
12254;DHT22;6189;52.526;13.390;2024-03-02T05:07:20;11.40;99.90
12254;DHT22;6189;52.526;13.390;2024-03-02T05:10:09;11.40;99.90
12254;DHT22;6189;52.526;13.390;2024-03-02T05:12:57;11.40;99.90
12254;DHT22;6189;52.526;13.390;2024-03-02T05:15:45;11.50;99.90
12254;DHT22;6189;52.526;13.390;2024-03-02T05:18:32;11.60;99.90
12254;DHT22;6189;52.526;13.390;2024-03-02T05:21:19;11.50;99.90
12254;DHT22;6189;52.526;13.390;2024-03-02T05:24:07;11.50;99.90
12254;DHT22;6189;52.526;13.390;2024-03-02T05:26:56;11.50;99.90
12254;DHT22;6189;52.526;13.390;2024-03-02T05:29:43;11.60;99.90
12254;DHT22;6189;52.526;13.390;2024-03-02T05:32:30;11.50;99.90
12254;DHT22;6189;52.526;13.390;2024-03-02T05:35:18;11.40;99.90
12254;DHT22;6189;52.526;13.390;2024-03-02T05:38:06;11.40;99.90
12254;DHT22;6189;52.526;13.390;2024-03-02T05:40:54;11.30;99.90
12254;DHT22;6189;52.526;13.390;2024-03-02T05:43:43;11.30;99.90
12254;DHT22;6189;52.526;13.390;2024-03-02T05:46:30;11.20;99.90
12254;DHT22;6189;52.526;13.390;2024-03-02T05:49:17;11.20;99.90
12254;DHT22;6189;52.526;13.390;2024-03-02T05:52:05;11.10;99.90
12254;DHT22;6189;52.526;13.390;2024-03-02T05:54:52;11.20;99.90
12254;DHT22;6189;52.526;13.390;2024-03-02T05:57:40;11.20;99.90
12254;DHT22;6189;52.526;13.390;2024-03-02T06:00:42;11.20;99.90
12254;DHT22;6189;52.526;13.390;2024-03-02T06:03:29;11.20;99.90
12254;DHT22;6189;52.526;13.390;2024-03-02T06:06:16;11.20;99.90
12254;DHT22;6189;52.526;13.390;2024-03-02T06:09:04;11.20;99.90
12254;DHT22;6189;52.526;13.390;2024-03-02T06:11:54;11.20;99.90
12254;DHT22;6189;52.526;13.390;2024-03-02T06:14:41;11.20;99.90
12254;DHT22;6189;52.526;13.390;2024-03-02T06:17:29;11.10;99.90
12254;DHT22;6189;52.526;13.390;2024-03-02T06:20:16;11.60;99.90
12254;DHT22;6189;52.526;13.390;2024-03-02T06:23:04;11.20;99.90
12254;DHT22;6189;52.526;13.390;2024-03-02T06:25:51;11.20;99.90
12254;DHT22;6189;52.526;13.390;2024-03-02T06:28:38;11.20;99.90
12254;DHT22;6189;52.526;13.390;2024-03-02T06:31:25;11.00;99.90
12254;DHT22;6189;52.526;13.390;2024-03-02T06:34:14;11.00;99.90
12254;DHT22;6189;52.526;13.390;2024-03-02T06:37:01;11.00;99.90
12254;DHT22;6189;52.526;13.390;2024-03-02T06:39:49;11.10;99.90
12254;DHT22;6189;52.526;13.390;2024-03-02T06:42:36;11.10;99.90
12254;DHT22;6189;52.526;13.390;2024-03-02T06:45:23;11.10;99.90
12254;DHT22;6189;52.526;13.390;2024-03-02T06:48:10;11.10;99.90
12254;DHT22;6189;52.526;13.390;2024-03-02T06:50:59;11.10;99.90
12254;DHT22;6189;52.526;13.390;2024-03-02T06:53:47;11.10;99.90
12254;DHT22;6189;52.526;13.390;2024-03-02T06:56:34;11.20;99.90
12254;DHT22;6189;52.526;13.390;2024-03-02T06:59:21;11.30;99.90
12254;DHT22;6189;52.526;13.390;2024-03-02T07:02:08;11.30;99.90
12254;DHT22;6189;52.526;13.390;2024-03-02T07:04:55;11.30;99.90
12254;DHT22;6189;52.526;13.390;2024-03-02T07:07:44;11.30;99.90
12254;DHT22;6189;52.526;13.390;2024-03-02T07:10:31;11.30;99.90
12254;DHT22;6189;52.526;13.390;2024-03-02T07:13:18;11.30;99.90
12254;DHT22;6189;52.526;13.390;2024-03-02T07:16:06;11.20;99.90
12254;DHT22;6189;52.526;13.390;2024-03-02T07:19:12;11.20;99.90
12254;DHT22;6189;52.526;13.390;2024-03-02T07:21:59;11.20;99.90
12254;DHT22;6189;52.526;13.390;2024-03-02T07:24:49;11.20;99.90
12254;DHT22;6189;52.526;13.390;2024-03-02T07:27:36;11.20;99.90
12254;DHT22;6189;52.526;13.390;2024-03-02T07:30:23;11.10;99.90
12254;DHT22;6189;52.526;13.390;2024-03-02T07:33:10;11.10;99.90
12254;DHT22;6189;52.526;13.390;2024-03-02T07:35:58;11.40;99.90
12254;DHT22;6189;52.526;13.390;2024-03-02T07:38:46;11.20;99.90
12254;DHT22;6189;52.526;13.390;2024-03-02T07:41:37;11.40;99.90
12254;DHT22;6189;52.526;13.390;2024-03-02T07:44:24;11.50;99.90
12254;DHT22;6189;52.526;13.390;2024-03-02T07:47:12;11.50;99.90
12254;DHT22;6189;52.526;13.390;2024-03-02T07:49:59;11.50;99.90
12254;DHT22;6189;52.526;13.390;2024-03-02T07:52:46;11.60;99.90
12254;DHT22;6189;52.526;13.390;2024-03-02T07:55:33;11.60;99.90
12254;DHT22;6189;52.526;13.390;2024-03-02T07:58:22;11.60;99.90
12254;DHT22;6189;52.526;13.390;2024-03-02T08:01:09;11.60;99.90
12254;DHT22;6189;52.526;13.390;2024-03-02T08:03:56;11.70;99.90
12254;DHT22;6189;52.526;13.390;2024-03-02T08:06:45;11.60;99.90
12254;DHT22;6189;52.526;13.390;2024-03-02T08:09:32;11.50;99.90
12254;DHT22;6189;52.526;13.390;2024-03-02T08:12:19;11.50;99.90
12254;DHT22;6189;52.526;13.390;2024-03-02T08:15:10;11.50;99.90
12254;DHT22;6189;52.526;13.390;2024-03-02T08:17:58;11.50;99.90
12254;DHT22;6189;52.526;13.390;2024-03-02T08:20:45;11.50;99.90
12254;DHT22;6189;52.526;13.390;2024-03-02T08:23:32;11.60;99.90
12254;DHT22;6189;52.526;13.390;2024-03-02T08:26:19;11.70;99.90
12254;DHT22;6189;52.526;13.390;2024-03-02T08:29:09;11.70;99.90
12254;DHT22;6189;52.526;13.390;2024-03-02T08:31:59;11.60;99.90
12254;DHT22;6189;52.526;13.390;2024-03-02T08:34:46;11.40;99.90
12254;DHT22;6189;52.526;13.390;2024-03-02T08:37:33;11.40;99.90
12254;DHT22;6189;52.526;13.390;2024-03-02T08:40:20;11.40;99.90
12254;DHT22;6189;52.526;13.390;2024-03-02T08:43:08;11.40;99.90
12254;DHT22;6189;52.526;13.390;2024-03-02T08:45:55;11.40;99.90
12254;DHT22;6189;52.526;13.390;2024-03-02T08:48:43;11.40;99.90
12254;DHT22;6189;52.526;13.390;2024-03-02T08:51:31;11.40;99.90
12254;DHT22;6189;52.526;13.390;2024-03-02T08:54:18;11.30;99.90
12254;DHT22;6189;52.526;13.390;2024-03-02T08:57:05;11.40;99.90
12254;DHT22;6189;52.526;13.390;2024-03-02T08:59:52;11.40;99.90
12254;DHT22;6189;52.526;13.390;2024-03-02T09:02:40;11.40;99.90
12254;DHT22;6189;52.526;13.390;2024-03-02T09:05:29;11.50;99.90
12254;DHT22;6189;52.526;13.390;2024-03-02T09:08:16;11.60;99.90
12254;DHT22;6189;52.526;13.390;2024-03-02T09:11:03;11.50;99.90
12254;DHT22;6189;52.526;13.390;2024-03-02T09:13:50;11.50;99.90
12254;DHT22;6189;52.526;13.390;2024-03-02T09:16:38;11.40;99.90
12254;DHT22;6189;52.526;13.390;2024-03-02T09:19:25;11.40;99.90
12254;DHT22;6189;52.526;13.390;2024-03-02T09:22:14;11.50;99.90
12254;DHT22;6189;52.526;13.390;2024-03-02T09:25:01;11.60;99.90
12254;DHT22;6189;52.526;13.390;2024-03-02T09:27:48;11.70;99.90
12254;DHT22;6189;52.526;13.390;2024-03-02T09:30:36;11.60;99.90
12254;DHT22;6189;52.526;13.390;2024-03-02T09:33:24;11.60;99.90
12254;DHT22;6189;52.526;13.390;2024-03-02T09:36:17;11.50;99.90
12254;DHT22;6189;52.526;13.390;2024-03-02T09:39:06;11.60;99.90
12254;DHT22;6189;52.526;13.390;2024-03-02T09:41:55;11.80;99.90
12254;DHT22;6189;52.526;13.390;2024-03-02T09:44:42;11.80;99.90
12254;DHT22;6189;52.526;13.390;2024-03-02T09:47:29;11.90;99.90
12254;DHT22;6189;52.526;13.390;2024-03-02T09:50:16;11.70;99.90
12254;DHT22;6189;52.526;13.390;2024-03-02T09:53:04;11.70;99.90
12254;DHT22;6189;52.526;13.390;2024-03-02T09:55:53;11.70;99.90
12254;DHT22;6189;52.526;13.390;2024-03-02T09:58:40;11.80;99.90
12254;DHT22;6189;52.526;13.390;2024-03-02T10:01:27;11.90;99.90
12254;DHT22;6189;52.526;13.390;2024-03-02T10:04:14;11.90;99.90
12254;DHT22;6189;52.526;13.390;2024-03-02T10:07:12;12.00;99.90
12254;DHT22;6189;52.526;13.390;2024-03-02T10:09:59;12.00;99.90
12254;DHT22;6189;52.526;13.390;2024-03-02T10:13:00;12.10;99.90
12254;DHT22;6189;52.526;13.390;2024-03-02T10:15:50;12.30;99.90
12254;DHT22;6189;52.526;13.390;2024-03-02T10:18:37;12.30;99.90
12254;DHT22;6189;52.526;13.390;2024-03-02T10:21:25;12.40;99.90
12254;DHT22;6189;52.526;13.390;2024-03-02T10:24:13;12.50;99.90
12254;DHT22;6189;52.526;13.390;2024-03-02T10:27:00;12.50;99.90
12254;DHT22;6189;52.526;13.390;2024-03-02T10:29:48;12.40;99.90
12254;DHT22;6189;52.526;13.390;2024-03-02T10:32:36;12.50;99.90
12254;DHT22;6189;52.526;13.390;2024-03-02T10:35:25;12.50;99.90
12254;DHT22;6189;52.526;13.390;2024-03-02T10:38:12;12.50;99.90
12254;DHT22;6189;52.526;13.390;2024-03-02T10:41:00;12.60;99.90
12254;DHT22;6189;52.526;13.390;2024-03-02T10:43:47;12.60;99.90
12254;DHT22;6189;52.526;13.390;2024-03-02T10:46:36;12.70;99.90
12254;DHT22;6189;52.526;13.390;2024-03-02T10:49:23;12.70;99.90
12254;DHT22;6189;52.526;13.390;2024-03-02T10:52:11;12.60;99.90
12254;DHT22;6189;52.526;13.390;2024-03-02T10:54:58;12.70;99.90
12254;DHT22;6189;52.526;13.390;2024-03-02T10:57:48;12.80;99.90
12254;DHT22;6189;52.526;13.390;2024-03-02T11:00:37;12.90;99.90
12254;DHT22;6189;52.526;13.390;2024-03-02T11:03:26;13.00;99.90
12254;DHT22;6189;52.526;13.390;2024-03-02T11:06:13;13.00;99.90
12254;DHT22;6189;52.526;13.390;2024-03-02T11:09:00;13.00;99.90
12254;DHT22;6189;52.526;13.390;2024-03-02T11:11:56;13.10;99.90
12254;DHT22;6189;52.526;13.390;2024-03-02T11:14:46;13.10;99.90
12254;DHT22;6189;52.526;13.390;2024-03-02T11:17:33;13.10;99.90
12254;DHT22;6189;52.526;13.390;2024-03-02T11:20:21;13.20;99.90
12254;DHT22;6189;52.526;13.390;2024-03-02T11:23:09;13.20;99.90
12254;DHT22;6189;52.526;13.390;2024-03-02T11:26:01;13.20;99.90
12254;DHT22;6189;52.526;13.390;2024-03-02T11:29:03;13.30;99.90
12254;DHT22;6189;52.526;13.390;2024-03-02T11:31:57;13.30;99.90
12254;DHT22;6189;52.526;13.390;2024-03-02T11:34:45;13.30;99.90
12254;DHT22;6189;52.526;13.390;2024-03-02T11:37:35;13.30;99.90
12254;DHT22;6189;52.526;13.390;2024-03-02T11:40:22;13.30;99.90
12254;DHT22;6189;52.526;13.390;2024-03-02T11:43:09;13.50;99.90
12254;DHT22;6189;52.526;13.390;2024-03-02T11:45:56;13.50;99.90
12254;DHT22;6189;52.526;13.390;2024-03-02T11:48:44;13.50;99.90
12254;DHT22;6189;52.526;13.390;2024-03-02T11:51:33;13.50;99.90
12254;DHT22;6189;52.526;13.390;2024-03-02T11:54:23;13.50;99.90
12254;DHT22;6189;52.526;13.390;2024-03-02T11:57:10;13.60;99.90
12254;DHT22;6189;52.526;13.390;2024-03-02T11:59:57;13.60;99.90
12254;DHT22;6189;52.526;13.390;2024-03-02T12:02:45;13.70;99.90
12254;DHT22;6189;52.526;13.390;2024-03-02T12:05:35;13.70;99.90
12254;DHT22;6189;52.526;13.390;2024-03-02T12:08:22;13.70;99.90
12254;DHT22;6189;52.526;13.390;2024-03-02T12:11:14;13.70;99.90
12254;DHT22;6189;52.526;13.390;2024-03-02T12:14:01;13.70;99.90
12254;DHT22;6189;52.526;13.390;2024-03-02T12:16:50;13.80;99.90
12254;DHT22;6189;52.526;13.390;2024-03-02T12:19:37;13.80;99.90
12254;DHT22;6189;52.526;13.390;2024-03-02T12:22:24;13.80;99.90
12254;DHT22;6189;52.526;13.390;2024-03-02T12:25:11;13.80;99.90
12254;DHT22;6189;52.526;13.390;2024-03-02T12:28:01;13.80;99.90
12254;DHT22;6189;52.526;13.390;2024-03-02T12:30:48;13.80;99.90
12254;DHT22;6189;52.526;13.390;2024-03-02T12:33:36;13.70;99.90
12254;DHT22;6189;52.526;13.390;2024-03-02T12:36:23;13.80;99.90
12254;DHT22;6189;52.526;13.390;2024-03-02T12:39:11;13.90;99.90
12254;DHT22;6189;52.526;13.390;2024-03-02T12:41:58;13.90;99.90
12254;DHT22;6189;52.526;13.390;2024-03-02T12:44:46;14.00;99.90
12254;DHT22;6189;52.526;13.390;2024-03-02T12:47:33;14.20;99.90
12254;DHT22;6189;52.526;13.390;2024-03-02T12:50:21;14.20;99.90
12254;DHT22;6189;52.526;13.390;2024-03-02T12:53:13;14.10;99.90
12254;DHT22;6189;52.526;13.390;2024-03-02T12:56:01;14.20;99.90
12254;DHT22;6189;52.526;13.390;2024-03-02T12:58:52;14.20;99.90
12254;DHT22;6189;52.526;13.390;2024-03-02T13:01:50;14.20;99.90
12254;DHT22;6189;52.526;13.390;2024-03-02T13:04:38;14.20;99.90
12254;DHT22;6189;52.526;13.390;2024-03-02T13:07:25;14.30;99.90
12254;DHT22;6189;52.526;13.390;2024-03-02T13:10:12;14.30;99.90
12254;DHT22;6189;52.526;13.390;2024-03-02T13:13:00;14.40;99.90
12254;DHT22;6189;52.526;13.390;2024-03-02T13:15:47;14.50;99.90
12254;DHT22;6189;52.526;13.390;2024-03-02T13:18:36;14.50;99.90
12254;DHT22;6189;52.526;13.390;2024-03-02T13:21:23;14.50;99.90
12254;DHT22;6189;52.526;13.390;2024-03-02T13:24:10;14.50;99.90
12254;DHT22;6189;52.526;13.390;2024-03-02T13:26:57;14.50;99.90
12254;DHT22;6189;52.526;13.390;2024-03-02T13:29:45;14.50;99.90
12254;DHT22;6189;52.526;13.390;2024-03-02T13:32:34;14.50;99.90
12254;DHT22;6189;52.526;13.390;2024-03-02T13:35:24;14.60;99.90
12254;DHT22;6189;52.526;13.390;2024-03-02T13:38:13;14.70;99.90
12254;DHT22;6189;52.526;13.390;2024-03-02T13:41:01;14.60;99.90
12254;DHT22;6189;52.526;13.390;2024-03-02T13:43:49;14.60;99.90
12254;DHT22;6189;52.526;13.390;2024-03-02T13:46:36;14.60;99.90
12254;DHT22;6189;52.526;13.390;2024-03-02T13:49:24;14.60;99.90
12254;DHT22;6189;52.526;13.390;2024-03-02T13:52:15;14.70;99.90
12254;DHT22;6189;52.526;13.390;2024-03-02T13:55:03;14.70;99.90
12254;DHT22;6189;52.526;13.390;2024-03-02T13:57:50;14.70;99.90
12254;DHT22;6189;52.526;13.390;2024-03-02T14:00:38;14.70;99.90
12254;DHT22;6189;52.526;13.390;2024-03-02T14:03:25;14.70;99.90
12254;DHT22;6189;52.526;13.390;2024-03-02T14:06:13;14.70;99.90
12254;DHT22;6189;52.526;13.390;2024-03-02T14:09:02;14.80;99.90
12254;DHT22;6189;52.526;13.390;2024-03-02T14:11:49;14.80;99.90
12254;DHT22;6189;52.526;13.390;2024-03-02T14:14:37;14.80;99.90
12254;DHT22;6189;52.526;13.390;2024-03-02T14:17:24;14.70;99.90
12254;DHT22;6189;52.526;13.390;2024-03-02T14:20:11;14.70;99.90
12254;DHT22;6189;52.526;13.390;2024-03-02T14:22:59;14.70;99.90
12254;DHT22;6189;52.526;13.390;2024-03-02T14:25:48;14.80;99.90
12254;DHT22;6189;52.526;13.390;2024-03-02T14:28:35;14.70;99.90
12254;DHT22;6189;52.526;13.390;2024-03-02T14:31:22;14.70;99.90
12254;DHT22;6189;52.526;13.390;2024-03-02T14:34:10;14.70;99.90
12254;DHT22;6189;52.526;13.390;2024-03-02T14:36:57;14.70;99.90
12254;DHT22;6189;52.526;13.390;2024-03-02T14:39:44;14.80;99.90
12254;DHT22;6189;52.526;13.390;2024-03-02T14:42:34;14.70;99.90
12254;DHT22;6189;52.526;13.390;2024-03-02T14:45:21;14.70;99.90
12254;DHT22;6189;52.526;13.390;2024-03-02T14:48:09;14.60;99.90
12254;DHT22;6189;52.526;13.390;2024-03-02T14:50:57;14.60;99.90
12254;DHT22;6189;52.526;13.390;2024-03-02T14:53:44;14.60;99.90
12254;DHT22;6189;52.526;13.390;2024-03-02T14:56:31;14.90;99.90
12254;DHT22;6189;52.526;13.390;2024-03-02T14:59:20;14.70;99.90
12254;DHT22;6189;52.526;13.390;2024-03-02T15:02:07;14.60;99.90
12254;DHT22;6189;52.526;13.390;2024-03-02T15:04:55;14.60;99.90
12254;DHT22;6189;52.526;13.390;2024-03-02T15:07:42;14.60;99.90
12254;DHT22;6189;52.526;13.390;2024-03-02T15:10:29;14.60;99.90
12254;DHT22;6189;52.526;13.390;2024-03-02T15:13:16;14.60;99.90
12254;DHT22;6189;52.526;13.390;2024-03-02T15:16:05;14.50;99.90
12254;DHT22;6189;52.526;13.390;2024-03-02T15:18:52;14.60;99.90
12254;DHT22;6189;52.526;13.390;2024-03-02T15:21:39;14.40;99.90
12254;DHT22;6189;52.526;13.390;2024-03-02T15:24:26;14.40;99.90
12254;DHT22;6189;52.526;13.390;2024-03-02T15:27:14;14.40;99.90
12254;DHT22;6189;52.526;13.390;2024-03-02T15:30:01;14.40;99.90
12254;DHT22;6189;52.526;13.390;2024-03-02T15:32:50;14.40;99.90
12254;DHT22;6189;52.526;13.390;2024-03-02T15:35:37;14.70;99.90
12254;DHT22;6189;52.526;13.390;2024-03-02T15:38:24;14.50;99.90
12254;DHT22;6189;52.526;13.390;2024-03-02T15:41:14;14.50;99.90
12254;DHT22;6189;52.526;13.390;2024-03-02T15:44:01;14.50;99.90
12254;DHT22;6189;52.526;13.390;2024-03-02T15:46:48;14.40;99.90
12254;DHT22;6189;52.526;13.390;2024-03-02T15:49:36;14.50;99.90
12254;DHT22;6189;52.526;13.390;2024-03-02T15:52:23;14.50;99.90
12254;DHT22;6189;52.526;13.390;2024-03-02T15:55:10;14.50;99.90
12254;DHT22;6189;52.526;13.390;2024-03-02T15:57:57;14.50;99.90
12254;DHT22;6189;52.526;13.390;2024-03-02T16:00:45;14.40;99.90
12254;DHT22;6189;52.526;13.390;2024-03-02T16:03:32;14.40;99.90
12254;DHT22;6189;52.526;13.390;2024-03-02T16:06:21;14.40;99.90
12254;DHT22;6189;52.526;13.390;2024-03-02T16:09:08;14.40;99.90
12254;DHT22;6189;52.526;13.390;2024-03-02T16:11:56;14.40;99.90
12254;DHT22;6189;52.526;13.390;2024-03-02T16:14:43;14.40;99.90
12254;DHT22;6189;52.526;13.390;2024-03-02T16:17:30;14.40;99.90
12254;DHT22;6189;52.526;13.390;2024-03-02T16:20:18;14.30;99.90
12254;DHT22;6189;52.526;13.390;2024-03-02T16:23:08;14.20;99.90
12254;DHT22;6189;52.526;13.390;2024-03-02T16:25:56;14.20;99.90
12254;DHT22;6189;52.526;13.390;2024-03-02T16:28:43;14.20;99.90
12254;DHT22;6189;52.526;13.390;2024-03-02T16:31:30;14.10;99.90
12254;DHT22;6189;52.526;13.390;2024-03-02T16:34:17;14.00;99.90
12254;DHT22;6189;52.526;13.390;2024-03-02T16:37:04;14.00;99.90
12254;DHT22;6189;52.526;13.390;2024-03-02T16:39:53;13.90;99.90
12254;DHT22;6189;52.526;13.390;2024-03-02T16:42:41;13.90;99.90
12254;DHT22;6189;52.526;13.390;2024-03-02T16:45:28;13.90;99.90
12254;DHT22;6189;52.526;13.390;2024-03-02T16:48:17;13.90;99.90
12254;DHT22;6189;52.526;13.390;2024-03-02T16:51:04;13.80;99.90
12254;DHT22;6189;52.526;13.390;2024-03-02T16:53:51;13.70;99.90
12254;DHT22;6189;52.526;13.390;2024-03-02T16:56:40;13.70;99.90
12254;DHT22;6189;52.526;13.390;2024-03-02T16:59:27;13.70;99.90
12254;DHT22;6189;52.526;13.390;2024-03-02T17:02:15;13.70;99.90
12254;DHT22;6189;52.526;13.390;2024-03-02T17:05:02;13.60;99.90
12254;DHT22;6189;52.526;13.390;2024-03-02T17:07:49;13.70;99.90
12254;DHT22;6189;52.526;13.390;2024-03-02T17:10:37;13.70;99.90
12254;DHT22;6189;52.526;13.390;2024-03-02T17:13:27;13.60;99.90
12254;DHT22;6189;52.526;13.390;2024-03-02T17:16:14;13.60;99.90
12254;DHT22;6189;52.526;13.390;2024-03-02T17:19:03;13.60;99.90
12254;DHT22;6189;52.526;13.390;2024-03-02T17:21:50;13.60;99.90
12254;DHT22;6189;52.526;13.390;2024-03-02T17:24:37;13.60;99.90
12254;DHT22;6189;52.526;13.390;2024-03-02T17:27:24;13.50;99.90
12254;DHT22;6189;52.526;13.390;2024-03-02T17:30:14;13.40;99.90
12254;DHT22;6189;52.526;13.390;2024-03-02T17:33:01;13.40;99.90
12254;DHT22;6189;52.526;13.390;2024-03-02T17:35:48;13.40;99.90
12254;DHT22;6189;52.526;13.390;2024-03-02T17:38:36;13.40;99.90
12254;DHT22;6189;52.526;13.390;2024-03-02T17:41:23;13.40;99.90